sensor_id;sensor_type;location;lat;lon;timestamp;P1;durP1;ratioP1;P2;durP2;ratioP2
8791;SDS011;4432;50.890;4.744;2022-11-20T00:01:06;20.53;;;10.30;;
8791;SDS011;4432;50.890;4.744;2022-11-20T00:03:37;19.73;;;10.83;;
8791;SDS011;4432;50.890;4.744;2022-11-20T00:06:04;18.47;;;9.80;;
8791;SDS011;4432;50.890;4.744;2022-11-20T00:08:31;16.40;;;10.13;;
8791;SDS011;4432;50.890;4.744;2022-11-20T00:11:02;18.30;;;9.90;;
8791;SDS011;4432;50.890;4.744;2022-11-20T00:13:32;15.87;;;8.77;;
8791;SDS011;4432;50.890;4.744;2022-11-20T00:15:58;17.80;;;10.00;;
8791;SDS011;4432;50.890;4.744;2022-11-20T00:18:25;15.30;;;9.63;;
8791;SDS011;4432;50.890;4.744;2022-11-20T00:20:52;22.07;;;10.27;;
8791;SDS011;4432;50.890;4.744;2022-11-20T00:23:18;16.40;;;9.57;;
8791;SDS011;4432;50.890;4.744;2022-11-20T00:25:44;18.90;;;10.27;;
8791;SDS011;4432;50.890;4.744;2022-11-20T00:28:10;18.47;;;9.80;;
8791;SDS011;4432;50.890;4.744;2022-11-20T00:30:36;15.97;;;9.33;;
8791;SDS011;4432;50.890;4.744;2022-11-20T00:33:02;17.90;;;10.57;;
8791;SDS011;4432;50.890;4.744;2022-11-20T00:35:28;17.07;;;9.83;;
8791;SDS011;4432;50.890;4.744;2022-11-20T00:37:53;17.40;;;8.83;;
8791;SDS011;4432;50.890;4.744;2022-11-20T00:40:19;17.07;;;9.20;;
8791;SDS011;4432;50.890;4.744;2022-11-20T00:42:45;33.60;;;14.97;;
8791;SDS011;4432;50.890;4.744;2022-11-20T00:45:11;21.00;;;11.37;;
8791;SDS011;4432;50.890;4.744;2022-11-20T00:47:37;18.60;;;10.50;;
8791;SDS011;4432;50.890;4.744;2022-11-20T00:50:03;20.80;;;10.03;;
8791;SDS011;4432;50.890;4.744;2022-11-20T00:52:29;19.67;;;11.57;;
8791;SDS011;4432;50.890;4.744;2022-11-20T00:54:55;20.20;;;9.87;;
8791;SDS011;4432;50.890;4.744;2022-11-20T00:57:21;18.03;;;9.97;;
8791;SDS011;4432;50.890;4.744;2022-11-20T00:59:47;16.07;;;9.43;;
8791;SDS011;4432;50.890;4.744;2022-11-20T01:02:12;14.70;;;9.33;;
8791;SDS011;4432;50.890;4.744;2022-11-20T01:04:40;18.77;;;9.80;;
8791;SDS011;4432;50.890;4.744;2022-11-20T01:07:06;15.50;;;8.67;;
8791;SDS011;4432;50.890;4.744;2022-11-20T01:09:32;18.50;;;9.83;;
8791;SDS011;4432;50.890;4.744;2022-11-20T01:11:57;14.53;;;9.73;;
8791;SDS011;4432;50.890;4.744;2022-11-20T01:14:24;19.63;;;10.13;;
8791;SDS011;4432;50.890;4.744;2022-11-20T01:16:50;15.33;;;9.47;;
8791;SDS011;4432;50.890;4.744;2022-11-20T01:19:18;15.40;;;9.13;;
8791;SDS011;4432;50.890;4.744;2022-11-20T01:21:51;17.93;;;9.50;;
8791;SDS011;4432;50.890;4.744;2022-11-20T01:24:19;17.40;;;10.00;;
8791;SDS011;4432;50.890;4.744;2022-11-20T01:26:47;15.07;;;9.30;;
8791;SDS011;4432;50.890;4.744;2022-11-20T01:29:16;15.43;;;8.77;;
8791;SDS011;4432;50.890;4.744;2022-11-20T01:31:49;20.00;;;9.77;;
8791;SDS011;4432;50.890;4.744;2022-11-20T01:34:17;19.27;;;10.67;;
8791;SDS011;4432;50.890;4.744;2022-11-20T01:36:45;17.87;;;8.23;;
8791;SDS011;4432;50.890;4.744;2022-11-20T01:39:20;18.77;;;9.57;;
8791;SDS011;4432;50.890;4.744;2022-11-20T01:41:49;22.23;;;10.83;;
8791;SDS011;4432;50.890;4.744;2022-11-20T01:47:25;21.90;;;10.40;;
8791;SDS011;4432;50.890;4.744;2022-11-20T01:50:15;20.90;;;9.87;;
8791;SDS011;4432;50.890;4.744;2022-11-20T01:52:47;17.47;;;10.20;;
8791;SDS011;4432;50.890;4.744;2022-11-20T01:55:25;20.63;;;10.20;;
8791;SDS011;4432;50.890;4.744;2022-11-20T01:58:04;19.40;;;10.37;;
8791;SDS011;4432;50.890;4.744;2022-11-20T02:00:34;21.07;;;11.17;;
8791;SDS011;4432;50.890;4.744;2022-11-20T02:03:01;16.07;;;8.70;;
8791;SDS011;4432;50.890;4.744;2022-11-20T02:05:36;17.40;;;9.80;;
8791;SDS011;4432;50.890;4.744;2022-11-20T02:08:09;14.43;;;9.13;;
8791;SDS011;4432;50.890;4.744;2022-11-20T02:10:35;16.77;;;9.50;;
8791;SDS011;4432;50.890;4.744;2022-11-20T02:13:01;18.67;;;8.67;;
8791;SDS011;4432;50.890;4.744;2022-11-20T02:15:46;16.83;;;9.67;;
8791;SDS011;4432;50.890;4.744;2022-11-20T02:18:14;23.50;;;10.50;;
8791;SDS011;4432;50.890;4.744;2022-11-20T02:20:42;18.90;;;9.83;;
8791;SDS011;4432;50.890;4.744;2022-11-20T02:26:21;27.93;;;10.97;;
8791;SDS011;4432;50.890;4.744;2022-11-20T02:28:49;23.53;;;11.07;;
8791;SDS011;4432;50.890;4.744;2022-11-20T02:31:15;19.10;;;9.97;;
8791;SDS011;4432;50.890;4.744;2022-11-20T02:33:41;19.07;;;9.87;;
8791;SDS011;4432;50.890;4.744;2022-11-20T02:36:08;21.30;;;9.20;;
8791;SDS011;4432;50.890;4.744;2022-11-20T02:38:39;24.13;;;11.60;;
8791;SDS011;4432;50.890;4.744;2022-11-20T02:41:05;19.40;;;10.67;;
8791;SDS011;4432;50.890;4.744;2022-11-20T02:43:31;23.73;;;11.03;;
8791;SDS011;4432;50.890;4.744;2022-11-20T02:45:56;17.57;;;10.53;;
8791;SDS011;4432;50.890;4.744;2022-11-20T02:48:22;22.80;;;11.70;;
8791;SDS011;4432;50.890;4.744;2022-11-20T02:50:51;16.80;;;10.00;;
8791;SDS011;4432;50.890;4.744;2022-11-20T02:53:17;22.00;;;11.93;;
8791;SDS011;4432;50.890;4.744;2022-11-20T02:55:43;23.27;;;10.40;;
8791;SDS011;4432;50.890;4.744;2022-11-20T02:58:08;19.03;;;10.70;;
8791;SDS011;4432;50.890;4.744;2022-11-20T03:00:34;23.00;;;10.23;;
8791;SDS011;4432;50.890;4.744;2022-11-20T03:03:01;20.87;;;11.10;;
8791;SDS011;4432;50.890;4.744;2022-11-20T03:05:27;19.90;;;10.73;;
8791;SDS011;4432;50.890;4.744;2022-11-20T03:07:53;24.00;;;12.60;;
8791;SDS011;4432;50.890;4.744;2022-11-20T03:10:19;19.97;;;11.20;;
8791;SDS011;4432;50.890;4.744;2022-11-20T03:12:45;21.03;;;10.73;;
8791;SDS011;4432;50.890;4.744;2022-11-20T03:15:10;22.23;;;11.10;;
8791;SDS011;4432;50.890;4.744;2022-11-20T03:17:39;22.10;;;11.37;;
8791;SDS011;4432;50.890;4.744;2022-11-20T03:20:05;24.13;;;11.90;;
8791;SDS011;4432;50.890;4.744;2022-11-20T03:22:32;22.23;;;11.17;;
8791;SDS011;4432;50.890;4.744;2022-11-20T03:24:58;24.83;;;12.23;;
8791;SDS011;4432;50.890;4.744;2022-11-20T03:27:26;28.83;;;12.47;;
8791;SDS011;4432;50.890;4.744;2022-11-20T03:29:52;25.30;;;12.33;;
8791;SDS011;4432;50.890;4.744;2022-11-20T03:32:18;26.07;;;12.70;;
8791;SDS011;4432;50.890;4.744;2022-11-20T03:34:43;22.93;;;11.30;;
8791;SDS011;4432;50.890;4.744;2022-11-20T03:37:09;22.47;;;11.77;;
8791;SDS011;4432;50.890;4.744;2022-11-20T03:39:35;23.27;;;11.50;;
8791;SDS011;4432;50.890;4.744;2022-11-20T03:42:01;26.20;;;11.97;;
8791;SDS011;4432;50.890;4.744;2022-11-20T03:44:27;28.30;;;12.03;;
8791;SDS011;4432;50.890;4.744;2022-11-20T03:46:52;29.50;;;13.67;;
8791;SDS011;4432;50.890;4.744;2022-11-20T03:49:18;26.73;;;10.60;;
8791;SDS011;4432;50.890;4.744;2022-11-20T03:51:44;22.80;;;12.07;;
8791;SDS011;4432;50.890;4.744;2022-11-20T03:54:10;26.60;;;11.57;;
8791;SDS011;4432;50.890;4.744;2022-11-20T03:56:37;24.40;;;11.73;;
8791;SDS011;4432;50.890;4.744;2022-11-20T03:59:04;23.30;;;12.10;;
8791;SDS011;4432;50.890;4.744;2022-11-20T04:01:31;24.90;;;12.10;;
8791;SDS011;4432;50.890;4.744;2022-11-20T04:03:58;28.73;;;13.03;;
8791;SDS011;4432;50.890;4.744;2022-11-20T04:06:26;26.77;;;11.57;;
8791;SDS011;4432;50.890;4.744;2022-11-20T04:08:54;21.67;;;11.57;;
8791;SDS011;4432;50.890;4.744;2022-11-20T04:11:24;24.90;;;12.77;;
8791;SDS011;4432;50.890;4.744;2022-11-20T04:13:55;22.67;;;11.37;;
8791;SDS011;4432;50.890;4.744;2022-11-20T04:16:23;25.17;;;11.23;;
8791;SDS011;4432;50.890;4.744;2022-11-20T04:18:54;30.90;;;12.70;;
8791;SDS011;4432;50.890;4.744;2022-11-20T04:21:21;25.03;;;11.67;;
8791;SDS011;4432;50.890;4.744;2022-11-20T04:23:48;24.70;;;13.13;;
8791;SDS011;4432;50.890;4.744;2022-11-20T04:26:18;24.23;;;11.03;;
8791;SDS011;4432;50.890;4.744;2022-11-20T04:28:44;27.00;;;11.67;;
8791;SDS011;4432;50.890;4.744;2022-11-20T04:31:15;22.27;;;11.70;;
8791;SDS011;4432;50.890;4.744;2022-11-20T04:33:42;20.10;;;10.47;;
8791;SDS011;4432;50.890;4.744;2022-11-20T04:36:17;26.43;;;11.67;;
8791;SDS011;4432;50.890;4.744;2022-11-20T04:38:45;27.30;;;11.47;;
8791;SDS011;4432;50.890;4.744;2022-11-20T04:41:16;29.80;;;13.53;;
8791;SDS011;4432;50.890;4.744;2022-11-20T04:43:51;25.37;;;12.33;;
8791;SDS011;4432;50.890;4.744;2022-11-20T04:46:24;22.37;;;12.43;;
8791;SDS011;4432;50.890;4.744;2022-11-20T04:48:52;29.53;;;13.30;;
8791;SDS011;4432;50.890;4.744;2022-11-20T04:51:18;28.10;;;12.73;;
8791;SDS011;4432;50.890;4.744;2022-11-20T04:53:44;26.93;;;12.57;;
8791;SDS011;4432;50.890;4.744;2022-11-20T04:56:11;25.80;;;10.73;;
8791;SDS011;4432;50.890;4.744;2022-11-20T04:58:38;29.37;;;11.87;;
8791;SDS011;4432;50.890;4.744;2022-11-20T05:01:09;20.23;;;10.93;;
8791;SDS011;4432;50.890;4.744;2022-11-20T05:03:37;23.23;;;11.07;;
8791;SDS011;4432;50.890;4.744;2022-11-20T05:06:04;29.07;;;12.73;;
8791;SDS011;4432;50.890;4.744;2022-11-20T05:08:31;19.60;;;10.57;;
8791;SDS011;4432;50.890;4.744;2022-11-20T05:11:01;20.07;;;10.30;;
8791;SDS011;4432;50.890;4.744;2022-11-20T05:13:34;26.00;;;11.50;;
8791;SDS011;4432;50.890;4.744;2022-11-20T05:16:01;20.63;;;10.57;;
8791;SDS011;4432;50.890;4.744;2022-11-20T05:18:28;29.23;;;11.60;;
8791;SDS011;4432;50.890;4.744;2022-11-20T05:20:54;20.97;;;10.93;;
8791;SDS011;4432;50.890;4.744;2022-11-20T05:23:21;22.87;;;11.73;;
8791;SDS011;4432;50.890;4.744;2022-11-20T05:25:47;22.23;;;11.27;;
8791;SDS011;4432;50.890;4.744;2022-11-20T05:28:13;23.47;;;11.47;;
8791;SDS011;4432;50.890;4.744;2022-11-20T05:30:39;23.23;;;11.10;;
8791;SDS011;4432;50.890;4.744;2022-11-20T05:33:04;19.80;;;10.53;;
8791;SDS011;4432;50.890;4.744;2022-11-20T05:35:30;22.10;;;11.07;;
8791;SDS011;4432;50.890;4.744;2022-11-20T05:37:56;24.43;;;12.10;;
8791;SDS011;4432;50.890;4.744;2022-11-20T05:40:24;22.63;;;10.27;;
8791;SDS011;4432;50.890;4.744;2022-11-20T05:42:50;23.93;;;10.93;;
8791;SDS011;4432;50.890;4.744;2022-11-20T05:45:16;24.17;;;12.07;;
8791;SDS011;4432;50.890;4.744;2022-11-20T05:47:42;28.07;;;11.33;;
8791;SDS011;4432;50.890;4.744;2022-11-20T05:50:08;24.30;;;11.00;;
8791;SDS011;4432;50.890;4.744;2022-11-20T05:52:34;21.70;;;10.90;;
8791;SDS011;4432;50.890;4.744;2022-11-20T05:54:59;22.40;;;11.70;;
8791;SDS011;4432;50.890;4.744;2022-11-20T05:57:25;21.87;;;10.00;;
8791;SDS011;4432;50.890;4.744;2022-11-20T05:59:51;29.53;;;13.20;;
8791;SDS011;4432;50.890;4.744;2022-11-20T06:02:17;22.23;;;10.97;;
8791;SDS011;4432;50.890;4.744;2022-11-20T06:04:43;26.17;;;10.73;;
8791;SDS011;4432;50.890;4.744;2022-11-20T06:07:08;24.40;;;11.73;;
8791;SDS011;4432;50.890;4.744;2022-11-20T06:09:34;24.57;;;11.60;;
8791;SDS011;4432;50.890;4.744;2022-11-20T06:12:00;26.97;;;12.13;;
8791;SDS011;4432;50.890;4.744;2022-11-20T06:14:26;23.17;;;11.80;;
8791;SDS011;4432;50.890;4.744;2022-11-20T06:16:52;21.90;;;11.10;;
8791;SDS011;4432;50.890;4.744;2022-11-20T06:19:17;19.97;;;10.43;;
8791;SDS011;4432;50.890;4.744;2022-11-20T06:21:43;21.43;;;10.13;;
8791;SDS011;4432;50.890;4.744;2022-11-20T06:24:09;22.13;;;9.87;;
8791;SDS011;4432;50.890;4.744;2022-11-20T06:26:36;19.57;;;8.47;;
8791;SDS011;4432;50.890;4.744;2022-11-20T06:29:02;20.43;;;10.17;;
8791;SDS011;4432;50.890;4.744;2022-11-20T06:31:27;24.37;;;10.80;;
8791;SDS011;4432;50.890;4.744;2022-11-20T06:33:53;23.57;;;10.03;;
8791;SDS011;4432;50.890;4.744;2022-11-20T06:36:20;22.27;;;9.23;;
8791;SDS011;4432;50.890;4.744;2022-11-20T06:38:47;26.47;;;10.70;;
8791;SDS011;4432;50.890;4.744;2022-11-20T06:41:18;23.77;;;10.83;;
8791;SDS011;4432;50.890;4.744;2022-11-20T06:43:45;22.80;;;10.70;;
8791;SDS011;4432;50.890;4.744;2022-11-20T06:46:11;20.57;;;9.60;;
8791;SDS011;4432;50.890;4.744;2022-11-20T06:48:38;17.57;;;9.30;;
8791;SDS011;4432;50.890;4.744;2022-11-20T06:51:05;25.30;;;10.00;;
8791;SDS011;4432;50.890;4.744;2022-11-20T06:53:32;24.40;;;8.77;;
8791;SDS011;4432;50.890;4.744;2022-11-20T06:56:01;19.53;;;9.47;;
8791;SDS011;4432;50.890;4.744;2022-11-20T06:58:27;28.73;;;11.00;;
8791;SDS011;4432;50.890;4.744;2022-11-20T07:00:58;25.00;;;10.10;;
8791;SDS011;4432;50.890;4.744;2022-11-20T07:03:25;18.57;;;9.63;;
8791;SDS011;4432;50.890;4.744;2022-11-20T07:05:51;22.87;;;9.87;;
8791;SDS011;4432;50.890;4.744;2022-11-20T07:08:20;26.70;;;12.10;;
8791;SDS011;4432;50.890;4.744;2022-11-20T07:10:46;26.47;;;11.47;;
8791;SDS011;4432;50.890;4.744;2022-11-20T07:13:11;31.17;;;12.50;;
8791;SDS011;4432;50.890;4.744;2022-11-20T07:15:37;32.30;;;11.13;;
8791;SDS011;4432;50.890;4.744;2022-11-20T07:18:03;30.13;;;11.33;;
8791;SDS011;4432;50.890;4.744;2022-11-20T07:20:29;31.00;;;12.17;;
8791;SDS011;4432;50.890;4.744;2022-11-20T07:22:55;32.10;;;11.97;;
8791;SDS011;4432;50.890;4.744;2022-11-20T07:25:22;33.10;;;11.03;;
8791;SDS011;4432;50.890;4.744;2022-11-20T07:27:49;29.17;;;11.93;;
8791;SDS011;4432;50.890;4.744;2022-11-20T07:30:15;33.90;;;11.33;;
8791;SDS011;4432;50.890;4.744;2022-11-20T07:32:42;30.87;;;12.00;;
8791;SDS011;4432;50.890;4.744;2022-11-20T07:35:07;32.83;;;11.67;;
8791;SDS011;4432;50.890;4.744;2022-11-20T07:37:34;30.13;;;11.13;;
8791;SDS011;4432;50.890;4.744;2022-11-20T07:40:00;39.00;;;13.10;;
8791;SDS011;4432;50.890;4.744;2022-11-20T07:42:25;31.73;;;12.20;;
8791;SDS011;4432;50.890;4.744;2022-11-20T07:44:51;40.47;;;12.47;;
8791;SDS011;4432;50.890;4.744;2022-11-20T07:47:17;37.67;;;12.00;;
8791;SDS011;4432;50.890;4.744;2022-11-20T07:49:43;41.20;;;11.87;;
8791;SDS011;4432;50.890;4.744;2022-11-20T07:52:09;25.20;;;9.53;;
8791;SDS011;4432;50.890;4.744;2022-11-20T07:54:34;32.70;;;11.43;;
8791;SDS011;4432;50.890;4.744;2022-11-20T07:57:01;36.27;;;12.77;;
8791;SDS011;4432;50.890;4.744;2022-11-20T07:59:26;34.50;;;11.83;;
8791;SDS011;4432;50.890;4.744;2022-11-20T08:01:52;42.93;;;11.70;;
8791;SDS011;4432;50.890;4.744;2022-11-20T08:04:18;35.67;;;12.67;;
8791;SDS011;4432;50.890;4.744;2022-11-20T08:06:44;42.53;;;12.37;;
8791;SDS011;4432;50.890;4.744;2022-11-20T08:09:10;36.80;;;13.33;;
8791;SDS011;4432;50.890;4.744;2022-11-20T08:11:35;31.07;;;13.43;;
8791;SDS011;4432;50.890;4.744;2022-11-20T08:14:20;37.57;;;12.90;;
8791;SDS011;4432;50.890;4.744;2022-11-20T08:16:46;33.90;;;11.73;;
8791;SDS011;4432;50.890;4.744;2022-11-20T08:19:14;37.47;;;12.20;;
8791;SDS011;4432;50.890;4.744;2022-11-20T08:21:42;36.50;;;12.40;;
8791;SDS011;4432;50.890;4.744;2022-11-20T08:24:09;34.37;;;12.20;;
8791;SDS011;4432;50.890;4.744;2022-11-20T08:26:39;32.10;;;12.60;;
8791;SDS011;4432;50.890;4.744;2022-11-20T08:29:05;34.07;;;12.07;;
8791;SDS011;4432;50.890;4.744;2022-11-20T08:31:32;35.90;;;12.97;;
8791;SDS011;4432;50.890;4.744;2022-11-20T08:33:58;39.90;;;13.23;;
8791;SDS011;4432;50.890;4.744;2022-11-20T08:36:25;33.73;;;13.73;;
8791;SDS011;4432;50.890;4.744;2022-11-20T08:38:52;33.57;;;13.07;;
8791;SDS011;4432;50.890;4.744;2022-11-20T08:41:20;34.40;;;12.20;;
8791;SDS011;4432;50.890;4.744;2022-11-20T08:43:56;45.03;;;13.53;;
8791;SDS011;4432;50.890;4.744;2022-11-20T08:46:24;34.77;;;12.00;;
8791;SDS011;4432;50.890;4.744;2022-11-20T08:48:52;37.17;;;13.17;;
8791;SDS011;4432;50.890;4.744;2022-11-20T08:51:18;39.23;;;12.50;;
8791;SDS011;4432;50.890;4.744;2022-11-20T08:53:44;42.47;;;13.67;;
8791;SDS011;4432;50.890;4.744;2022-11-20T08:56:11;35.20;;;13.03;;
8791;SDS011;4432;50.890;4.744;2022-11-20T08:58:37;40.60;;;12.87;;
8791;SDS011;4432;50.890;4.744;2022-11-20T09:01:07;40.83;;;13.50;;
8791;SDS011;4432;50.890;4.744;2022-11-20T09:03:33;39.40;;;12.33;;
8791;SDS011;4432;50.890;4.744;2022-11-20T09:06:03;44.13;;;12.93;;
8791;SDS011;4432;50.890;4.744;2022-11-20T09:08:31;43.77;;;12.73;;
8791;SDS011;4432;50.890;4.744;2022-11-20T09:11:01;42.30;;;13.27;;
8791;SDS011;4432;50.890;4.744;2022-11-20T09:13:27;37.77;;;13.30;;
8791;SDS011;4432;50.890;4.744;2022-11-20T09:15:54;33.83;;;11.50;;
8791;SDS011;4432;50.890;4.744;2022-11-20T09:18:24;37.17;;;12.33;;
8791;SDS011;4432;50.890;4.744;2022-11-20T09:20:51;39.93;;;12.63;;
8791;SDS011;4432;50.890;4.744;2022-11-20T09:23:21;32.23;;;11.60;;
8791;SDS011;4432;50.890;4.744;2022-11-20T09:25:47;34.47;;;12.00;;
8791;SDS011;4432;50.890;4.744;2022-11-20T09:28:13;40.07;;;13.00;;
8791;SDS011;4432;50.890;4.744;2022-11-20T09:30:39;34.70;;;11.23;;
8791;SDS011;4432;50.890;4.744;2022-11-20T09:33:05;27.87;;;10.53;;
8791;SDS011;4432;50.890;4.744;2022-11-20T09:35:32;39.20;;;13.40;;
8791;SDS011;4432;50.890;4.744;2022-11-20T09:38:03;34.27;;;12.13;;
8791;SDS011;4432;50.890;4.744;2022-11-20T09:40:33;31.57;;;11.20;;
8791;SDS011;4432;50.890;4.744;2022-11-20T09:43:18;42.37;;;12.67;;
8791;SDS011;4432;50.890;4.744;2022-11-20T09:46:27;29.93;;;11.70;;
8791;SDS011;4432;50.890;4.744;2022-11-20T09:53:04;25.80;;;10.23;;
8791;SDS011;4432;50.890;4.744;2022-11-20T09:55:02;26.70;;;10.60;;
8791;SDS011;4432;50.890;4.744;2022-11-20T09:57:34;25.13;;;11.07;;
8791;SDS011;4432;50.890;4.744;2022-11-20T10:00:04;27.03;;;10.37;;
8791;SDS011;4432;50.890;4.744;2022-11-20T10:02:40;41.40;;;12.13;;
8791;SDS011;4432;50.890;4.744;2022-11-20T10:05:20;33.90;;;11.40;;
8791;SDS011;4432;50.890;4.744;2022-11-20T10:07:55;24.17;;;9.27;;
8791;SDS011;4432;50.890;4.744;2022-11-20T10:10:34;25.40;;;9.97;;
8791;SDS011;4432;50.890;4.744;2022-11-20T10:13:44;17.33;;;8.93;;
8791;SDS011;4432;50.890;4.744;2022-11-20T10:26:55;22.90;;;9.53;;
8791;SDS011;4432;50.890;4.744;2022-11-20T10:29:43;25.10;;;11.47;;
8791;SDS011;4432;50.890;4.744;2022-11-20T10:32:16;24.17;;;9.90;;
8791;SDS011;4432;50.890;4.744;2022-11-20T10:34:58;25.37;;;9.70;;
8791;SDS011;4432;50.890;4.744;2022-11-20T10:37:44;19.53;;;8.70;;
8791;SDS011;4432;50.890;4.744;2022-11-20T10:43:18;19.33;;;8.80;;
8791;SDS011;4432;50.890;4.744;2022-11-20T10:45:56;24.90;;;9.63;;
8791;SDS011;4432;50.890;4.744;2022-11-20T10:48:39;17.63;;;8.10;;
8791;SDS011;4432;50.890;4.744;2022-11-20T10:51:29;16.20;;;8.23;;
8791;SDS011;4432;50.890;4.744;2022-11-20T10:56:53;16.13;;;7.70;;
8791;SDS011;4432;50.890;4.744;2022-11-20T10:59:45;22.73;;;8.47;;
8791;SDS011;4432;50.890;4.744;2022-11-20T11:02:20;19.17;;;7.60;;
8791;SDS011;4432;50.890;4.744;2022-11-20T11:04:51;17.63;;;7.23;;
8791;SDS011;4432;50.890;4.744;2022-11-20T11:07:26;11.93;;;6.13;;
8791;SDS011;4432;50.890;4.744;2022-11-20T11:10:00;18.80;;;8.77;;
8791;SDS011;4432;50.890;4.744;2022-11-20T11:12:27;19.90;;;7.83;;
8791;SDS011;4432;50.890;4.744;2022-11-20T11:14:55;11.97;;;6.20;;
8791;SDS011;4432;50.890;4.744;2022-11-20T11:19:58;16.70;;;5.57;;
8791;SDS011;4432;50.890;4.744;2022-11-20T11:22:24;11.77;;;5.17;;
8791;SDS011;4432;50.890;4.744;2022-11-20T11:24:53;10.50;;;3.97;;
8791;SDS011;4432;50.890;4.744;2022-11-20T11:27:19;7.60;;;4.40;;
8791;SDS011;4432;50.890;4.744;2022-11-20T11:29:45;8.70;;;4.47;;
8791;SDS011;4432;50.890;4.744;2022-11-20T11:32:13;6.67;;;3.53;;
8791;SDS011;4432;50.890;4.744;2022-11-20T11:35:01;7.97;;;3.50;;
8791;SDS011;4432;50.890;4.744;2022-11-20T11:37:32;5.53;;;3.40;;
8791;SDS011;4432;50.890;4.744;2022-11-20T11:40:01;5.93;;;3.27;;
8791;SDS011;4432;50.890;4.744;2022-11-20T11:42:29;8.27;;;3.83;;
8791;SDS011;4432;50.890;4.744;2022-11-20T11:44:56;3.07;;;2.63;;
8791;SDS011;4432;50.890;4.744;2022-11-20T11:47:42;4.70;;;2.70;;
8791;SDS011;4432;50.890;4.744;2022-11-20T11:52:45;3.60;;;2.40;;
8791;SDS011;4432;50.890;4.744;2022-11-20T12:04:25;4.90;;;2.30;;
8791;SDS011;4432;50.890;4.744;2022-11-20T12:07:22;1.63;;;1.53;;
8791;SDS011;4432;50.890;4.744;2022-11-20T12:10:06;2.93;;;1.53;;
8791;SDS011;4432;50.890;4.744;2022-11-20T12:12:44;3.40;;;1.50;;
8791;SDS011;4432;50.890;4.744;2022-11-20T12:15:15;2.27;;;1.53;;
8791;SDS011;4432;50.890;4.744;2022-11-20T12:17:50;1.50;;;1.40;;
8791;SDS011;4432;50.890;4.744;2022-11-20T12:20:16;4.03;;;1.47;;
8791;SDS011;4432;50.890;4.744;2022-11-20T12:30:32;4.00;;;1.60;;
8791;SDS011;4432;50.890;4.744;2022-11-20T12:53:22;2.07;;;1.23;;
8791;SDS011;4432;50.890;4.744;2022-11-20T12:56:01;1.27;;;1.17;;
8791;SDS011;4432;50.890;4.744;2022-11-20T13:01:56;2.47;;;1.60;;
8791;SDS011;4432;50.890;4.744;2022-11-20T13:07:23;1.60;;;1.50;;
8791;SDS011;4432;50.890;4.744;2022-11-20T13:09:51;2.60;;;1.60;;
8791;SDS011;4432;50.890;4.744;2022-11-20T13:12:27;3.13;;;1.70;;
8791;SDS011;4432;50.890;4.744;2022-11-20T13:20:25;3.00;;;1.60;;
8791;SDS011;4432;50.890;4.744;2022-11-20T13:22:53;4.50;;;2.10;;
8791;SDS011;4432;50.890;4.744;2022-11-20T13:27:49;4.20;;;1.80;;
8791;SDS011;4432;50.890;4.744;2022-11-20T13:30:17;2.10;;;1.90;;
8791;SDS011;4432;50.890;4.744;2022-11-20T13:32:53;2.37;;;1.83;;
8791;SDS011;4432;50.890;4.744;2022-11-20T13:35:40;3.53;;;2.20;;
8791;SDS011;4432;50.890;4.744;2022-11-20T13:38:11;4.27;;;1.77;;
8791;SDS011;4432;50.890;4.744;2022-11-20T13:40:49;2.00;;;1.70;;
8791;SDS011;4432;50.890;4.744;2022-11-20T13:43:42;2.67;;;2.10;;
8791;SDS011;4432;50.890;4.744;2022-11-20T13:46:09;1.73;;;1.43;;
8791;SDS011;4432;50.890;4.744;2022-11-20T13:48:45;9.93;;;2.10;;
8791;SDS011;4432;50.890;4.744;2022-11-20T13:59:50;5.30;;;1.93;;
8791;SDS011;4432;50.890;4.744;2022-11-20T14:02:22;4.93;;;1.63;;
8791;SDS011;4432;50.890;4.744;2022-11-20T14:04:52;2.43;;;1.80;;
8791;SDS011;4432;50.890;4.744;2022-11-20T14:07:23;6.17;;;1.83;;
8791;SDS011;4432;50.890;4.744;2022-11-20T14:09:56;2.17;;;1.83;;
8791;SDS011;4432;50.890;4.744;2022-11-20T14:12:23;2.73;;;2.10;;
8791;SDS011;4432;50.890;4.744;2022-11-20T14:14:56;3.70;;;1.53;;
8791;SDS011;4432;50.890;4.744;2022-11-20T14:17:24;3.57;;;1.60;;
8791;SDS011;4432;50.890;4.744;2022-11-20T14:19:58;1.63;;;1.47;;
8791;SDS011;4432;50.890;4.744;2022-11-20T14:22:36;6.60;;;1.60;;
8791;SDS011;4432;50.890;4.744;2022-11-20T14:27:38;6.77;;;1.80;;
8791;SDS011;4432;50.890;4.744;2022-11-20T14:30:06;1.67;;;1.57;;
8791;SDS011;4432;50.890;4.744;2022-11-20T14:32:42;1.97;;;1.40;;
8791;SDS011;4432;50.890;4.744;2022-11-20T14:35:09;2.17;;;1.50;;
8791;SDS011;4432;50.890;4.744;2022-11-20T14:37:50;1.60;;;1.40;;
8791;SDS011;4432;50.890;4.744;2022-11-20T14:42:53;1.53;;;1.43;;
8791;SDS011;4432;50.890;4.744;2022-11-20T14:45:19;1.53;;;1.43;;
8791;SDS011;4432;50.890;4.744;2022-11-20T14:47:46;2.10;;;1.60;;
8791;SDS011;4432;50.890;4.744;2022-11-20T14:50:17;1.63;;;1.53;;
8791;SDS011;4432;50.890;4.744;2022-11-20T14:52:54;1.77;;;1.67;;
8791;SDS011;4432;50.890;4.744;2022-11-20T14:55:36;5.80;;;1.70;;
8791;SDS011;4432;50.890;4.744;2022-11-20T14:58:19;1.90;;;1.70;;
8791;SDS011;4432;50.890;4.744;2022-11-20T15:00:56;2.40;;;1.97;;
8791;SDS011;4432;50.890;4.744;2022-11-20T15:03:30;3.13;;;1.50;;
8791;SDS011;4432;50.890;4.744;2022-11-20T15:06:04;1.20;;;1.17;;
8791;SDS011;4432;50.890;4.744;2022-11-20T15:08:32;1.90;;;1.70;;
8791;SDS011;4432;50.890;4.744;2022-11-20T15:10:58;1.17;;;1.17;;
8791;SDS011;4432;50.890;4.744;2022-11-20T15:13:25;2.17;;;1.57;;
8791;SDS011;4432;50.890;4.744;2022-11-20T15:15:57;1.63;;;1.50;;
8791;SDS011;4432;50.890;4.744;2022-11-20T15:18:28;1.67;;;1.20;;
8791;SDS011;4432;50.890;4.744;2022-11-20T15:21:02;1.77;;;1.67;;
8791;SDS011;4432;50.890;4.744;2022-11-20T15:23:31;1.60;;;1.50;;
8791;SDS011;4432;50.890;4.744;2022-11-20T15:25:57;1.53;;;1.43;;
8791;SDS011;4432;50.890;4.744;2022-11-20T15:28:27;1.87;;;1.33;;
8791;SDS011;4432;50.890;4.744;2022-11-20T15:30:58;1.47;;;1.40;;
8791;SDS011;4432;50.890;4.744;2022-11-20T15:33:25;1.90;;;1.70;;
8791;SDS011;4432;50.890;4.744;2022-11-20T15:35:51;2.03;;;1.50;;
8791;SDS011;4432;50.890;4.744;2022-11-20T15:38:17;1.70;;;1.60;;
8791;SDS011;4432;50.890;4.744;2022-11-20T15:40:42;2.10;;;1.90;;
8791;SDS011;4432;50.890;4.744;2022-11-20T15:43:08;3.17;;;2.23;;
8791;SDS011;4432;50.890;4.744;2022-11-20T15:45:37;2.10;;;1.90;;
8791;SDS011;4432;50.890;4.744;2022-11-20T15:48:50;4.20;;;1.80;;
8791;SDS011;4432;50.890;4.744;2022-11-20T15:51:21;2.40;;;2.20;;
8791;SDS011;4432;50.890;4.744;2022-11-20T15:53:54;4.40;;;2.60;;
8791;SDS011;4432;50.890;4.744;2022-11-20T15:56:20;3.67;;;2.30;;
8791;SDS011;4432;50.890;4.744;2022-11-20T15:58:46;3.77;;;2.63;;
8791;SDS011;4432;50.890;4.744;2022-11-20T16:01:13;2.67;;;2.43;;
8791;SDS011;4432;50.890;4.744;2022-11-20T16:03:44;3.67;;;2.90;;
8791;SDS011;4432;50.890;4.744;2022-11-20T16:06:10;3.63;;;2.83;;
8791;SDS011;4432;50.890;4.744;2022-11-20T16:08:36;5.30;;;2.87;;
8791;SDS011;4432;50.890;4.744;2022-11-20T16:11:01;5.03;;;2.70;;
8791;SDS011;4432;50.890;4.744;2022-11-20T16:13:27;3.53;;;2.70;;
8791;SDS011;4432;50.890;4.744;2022-11-20T16:16:33;8.70;;;3.03;;
8791;SDS011;4432;50.890;4.744;2022-11-20T16:19:00;6.07;;;2.67;;
8791;SDS011;4432;50.890;4.744;2022-11-20T16:21:26;4.57;;;2.67;;
8791;SDS011;4432;50.890;4.744;2022-11-20T16:24:03;5.50;;;3.13;;
8791;SDS011;4432;50.890;4.744;2022-11-20T16:26:30;4.50;;;2.90;;
8791;SDS011;4432;50.890;4.744;2022-11-20T16:28:58;3.30;;;2.43;;
8791;SDS011;4432;50.890;4.744;2022-11-20T16:31:24;2.83;;;2.43;;
8791;SDS011;4432;50.890;4.744;2022-11-20T16:33:54;9.43;;;2.80;;
8791;SDS011;4432;50.890;4.744;2022-11-20T16:36:21;3.97;;;2.53;;
8791;SDS011;4432;50.890;4.744;2022-11-20T16:38:55;3.13;;;2.80;;
8791;SDS011;4432;50.890;4.744;2022-11-20T16:41:22;7.73;;;2.70;;
8791;SDS011;4432;50.890;4.744;2022-11-20T16:44:00;6.53;;;2.50;;
8791;SDS011;4432;50.890;4.744;2022-11-20T16:46:31;12.00;;;2.80;;
8791;SDS011;4432;50.890;4.744;2022-11-20T16:48:58;5.13;;;2.67;;